createdAt,value
2022-10-11T00:01:10.620Z,62.30
2022-10-11T00:03:39.948Z,62.40
2022-10-11T00:06:09.249Z,63.00
2022-10-11T00:08:36.281Z,62.40
2022-10-11T00:11:10.181Z,62.60
2022-10-11T00:13:36.970Z,62.60
2022-10-11T00:16:15.251Z,62.60
2022-10-11T00:18:45.070Z,62.80
2022-10-11T00:21:15.119Z,62.60
2022-10-11T00:23:43.262Z,62.80
2022-10-11T00:26:14.221Z,62.70
2022-10-11T00:28:45.779Z,62.90
2022-10-11T00:31:17.793Z,63.00
2022-10-11T00:33:44.635Z,63.00
2022-10-11T00:36:14.518Z,63.00
2022-10-11T00:38:44.315Z,63.10
2022-10-11T00:41:11.345Z,63.10
2022-10-11T00:43:38.264Z,63.10
2022-10-11T00:46:27.748Z,63.10
2022-10-11T00:49:06.917Z,63.20
2022-10-11T00:51:50.258Z,63.10
2022-10-11T00:54:25.316Z,63.40
2022-10-11T00:57:05.045Z,63.10
2022-10-11T00:59:41.420Z,63.20
2022-10-11T01:02:10.615Z,63.20
2022-10-11T01:04:42.770Z,62.90
2022-10-11T01:07:13.235Z,63.00
2022-10-11T01:09:42.260Z,63.10
2022-10-11T01:12:25.736Z,63.10
2022-10-11T01:14:59.191Z,63.60
2022-10-11T01:18:00.842Z,63.40
2022-10-11T01:20:43.349Z,63.10
2022-10-11T01:23:40.468Z,63.20
2022-10-11T01:26:48.106Z,63.40
2022-10-11T01:29:45.727Z,63.60
2022-10-11T01:32:46.331Z,64.10
2022-10-11T01:35:30.264Z,63.50
2022-10-11T01:38:07.443Z,63.20
2022-10-11T01:41:02.076Z,64.00
2022-10-11T01:43:35.120Z,63.20
2022-10-11T01:46:05.821Z,63.20
2022-10-11T01:48:46.226Z,63.10
2022-10-11T01:51:16.092Z,63.10
2022-10-11T01:54:11.915Z,63.10
2022-10-11T01:57:00.475Z,63.00
2022-10-11T01:59:57.614Z,63.00
2022-10-11T02:02:41.747Z,63.10
2022-10-11T02:05:32.470Z,62.80
2022-10-11T02:08:27.458Z,62.90
2022-10-11T02:10:57.112Z,63.00
2022-10-11T02:13:37.871Z,62.80
2022-10-11T02:16:11.460Z,62.90
2022-10-11T02:18:46.899Z,62.90
2022-10-11T02:21:20.411Z,62.90
2022-10-11T02:24:13.749Z,62.90
2022-10-11T02:26:49.095Z,63.00
2022-10-11T02:29:22.719Z,62.80
2022-10-11T02:31:51.843Z,62.80
2022-10-11T02:34:45.112Z,62.80
2022-10-11T02:37:38.616Z,63.00
2022-10-11T02:40:32.451Z,62.80
2022-10-11T02:43:02.535Z,62.80
2022-10-11T02:45:38.951Z,62.70
2022-10-11T02:48:08.478Z,62.80
2022-10-11T02:50:35.472Z,62.70
2022-10-11T02:53:06.742Z,62.70
2022-10-11T02:55:36.160Z,62.70
2022-10-11T02:58:03.456Z,62.70
2022-10-11T03:00:34.567Z,62.60
2022-10-11T03:03:05.832Z,62.70
2022-10-11T03:05:40.475Z,62.70
2022-10-11T03:08:13.911Z,62.70
2022-10-11T03:10:43.433Z,62.60
2022-10-11T03:13:11.430Z,62.50
2022-10-11T03:15:42.245Z,62.50
2022-10-11T03:18:14.095Z,62.50
2022-10-11T03:20:43.338Z,62.50
2022-10-11T03:23:15.278Z,62.40
2022-10-11T03:25:41.963Z,62.40
2022-10-11T03:28:11.001Z,62.40
2022-10-11T03:30:42.270Z,62.40
2022-10-11T03:33:11.341Z,62.40
2022-10-11T03:35:43.415Z,62.50
2022-10-11T03:38:18.009Z,62.50
2022-10-11T03:40:45.071Z,62.60
2022-10-11T03:43:11.771Z,62.60
2022-10-11T03:45:42.242Z,62.50
2022-10-11T03:48:12.310Z,62.60
2022-10-11T03:50:43.821Z,62.60
2022-10-11T03:53:10.741Z,62.90
2022-10-11T03:55:43.607Z,62.60
2022-10-11T03:58:12.800Z,62.60
2022-10-11T04:00:44.534Z,62.70
2022-10-11T04:03:11.256Z,62.60
2022-10-11T04:05:40.159Z,62.60
2022-10-11T04:08:12.268Z,62.60
2022-10-11T04:10:39.937Z,62.60
2022-10-11T04:13:09.828Z,62.60
2022-10-11T04:15:41.387Z,62.70
2022-10-11T04:18:14.109Z,62.70
2022-10-11T04:20:40.807Z,62.60
2022-10-11T04:23:12.336Z,62.60
2022-10-11T04:25:40.006Z,62.60
2022-10-11T04:28:09.497Z,62.70
2022-10-11T04:30:41.269Z,62.70
2022-10-11T04:33:11.475Z,62.70
2022-10-11T04:35:40.603Z,62.70
2022-10-11T04:38:10.403Z,62.70
2022-10-11T04:40:39.770Z,62.70
2022-10-11T04:43:06.506Z,62.70
2022-10-11T04:45:35.540Z,62.80
2022-10-11T04:48:05.343Z,62.80
2022-10-11T04:50:36.855Z,62.70
2022-10-11T04:53:06.103Z,62.70
2022-10-11T04:55:37.385Z,62.80
2022-10-11T04:58:04.203Z,62.80
2022-10-11T05:00:30.929Z,62.80
2022-10-11T05:03:05.080Z,62.80
2022-10-11T05:05:31.776Z,62.90
2022-10-11T05:07:58.474Z,62.90
2022-10-11T05:10:25.242Z,63.50
2022-10-11T05:12:54.219Z,62.90
2022-10-11T05:15:20.911Z,62.90
2022-10-11T05:17:49.870Z,63.00
2022-10-11T05:20:16.719Z,63.00
2022-10-11T05:22:43.403Z,63.00
2022-10-11T05:25:13.293Z,63.00
2022-10-11T05:27:42.192Z,63.00
2022-10-11T05:30:09.512Z,63.10
2022-10-11T05:32:43.316Z,63.10
2022-10-11T05:35:15.132Z,63.20
2022-10-11T05:37:46.383Z,63.20
2022-10-11T05:40:13.858Z,63.10
2022-10-11T05:42:40.576Z,63.20
2022-10-11T05:45:08.116Z,63.20
2022-10-11T05:47:34.803Z,63.90
2022-10-11T05:50:01.495Z,63.30
2022-10-11T05:52:33.131Z,64.00
2022-10-11T05:55:07.141Z,63.40
2022-10-11T05:57:36.222Z,63.40
2022-10-11T06:00:06.376Z,63.40
2022-10-11T06:02:38.703Z,63.40
2022-10-11T06:05:05.861Z,63.50
2022-10-11T06:07:35.725Z,63.50
2022-10-11T06:10:03.328Z,63.40
2022-10-11T06:12:31.375Z,64.00
2022-10-11T06:15:00.606Z,63.40
2022-10-11T06:17:29.480Z,63.60
2022-10-11T06:19:56.208Z,63.50
2022-10-11T06:22:23.075Z,63.50
2022-10-11T06:24:52.212Z,63.50
2022-10-11T06:27:19.015Z,63.50
2022-10-11T06:29:48.192Z,63.50
2022-10-11T06:32:15.176Z,63.60
2022-10-11T06:34:41.883Z,63.60
2022-10-11T06:37:08.874Z,63.70
2022-10-11T06:39:35.617Z,63.70
2022-10-11T06:42:02.472Z,63.80
2022-10-11T06:44:31.485Z,63.70
2022-10-11T06:47:00.415Z,63.70
2022-10-11T06:49:27.133Z,63.90
2022-10-11T06:51:53.891Z,63.80
2022-10-11T06:54:23.100Z,63.90
2022-10-11T06:56:52.382Z,63.80
2022-10-11T06:59:22.047Z,63.80
2022-10-11T07:01:48.969Z,63.80
2022-10-11T07:04:17.737Z,63.90
2022-10-11T07:06:44.449Z,63.80
2022-10-11T07:09:13.707Z,63.80
2022-10-11T07:11:40.499Z,63.80
2022-10-11T07:14:10.209Z,63.80
2022-10-11T07:16:39.858Z,63.90
2022-10-11T07:19:09.791Z,63.90
2022-10-11T07:21:38.661Z,63.90
2022-10-11T07:24:08.387Z,63.90
2022-10-11T07:26:38.496Z,63.90
2022-10-11T07:29:08.329Z,63.90
2022-10-11T07:31:41.984Z,64.00
2022-10-11T07:34:09.922Z,63.90
2022-10-11T07:36:39.032Z,63.90
2022-10-11T07:39:10.906Z,64.50
2022-10-11T07:41:43.167Z,64.00
2022-10-11T07:44:14.767Z,63.90
2022-10-11T07:46:41.571Z,64.00
2022-10-11T07:49:12.891Z,64.10
2022-10-11T07:51:39.615Z,64.00
2022-10-11T07:54:08.472Z,64.00
2022-10-11T07:56:37.418Z,64.10
2022-10-11T07:59:07.988Z,64.00
2022-10-11T08:01:34.916Z,64.10
2022-10-11T08:04:01.683Z,64.10
2022-10-11T08:06:33.287Z,64.10
2022-10-11T08:09:03.885Z,64.00
2022-10-11T08:11:37.301Z,64.00
2022-10-11T08:14:08.801Z,64.00
2022-10-11T08:16:37.049Z,63.90
2022-10-11T08:19:09.112Z,63.80
2022-10-11T08:21:38.141Z,63.80
2022-10-11T08:24:07.948Z,63.90
2022-10-11T08:26:36.981Z,63.80
2022-10-11T08:29:04.969Z,63.80
2022-10-11T08:31:35.164Z,63.80
2022-10-11T08:34:02.705Z,63.80
2022-10-11T08:36:32.103Z,63.80
2022-10-11T08:39:00.773Z,63.80
2022-10-11T08:41:51.935Z,63.80
2022-10-11T08:45:08.948Z,63.90
2022-10-11T08:47:37.704Z,63.70
2022-10-11T08:50:07.920Z,63.80
2022-10-11T08:52:47.549Z,63.70
2022-10-11T08:55:44.009Z,63.80
2022-10-11T08:58:19.212Z,63.90
2022-10-11T09:00:50.225Z,63.60
2022-10-11T09:03:44.157Z,63.60
2022-10-11T09:06:49.706Z,63.60
2022-10-11T09:09:52.793Z,63.70
2022-10-11T09:12:30.903Z,63.80
2022-10-11T09:15:36.406Z,63.70
2022-10-11T09:18:46.086Z,63.80
2022-10-11T09:21:32.662Z,63.80
2022-10-11T09:24:17.645Z,63.80
2022-10-11T09:27:05.473Z,63.80
2022-10-11T09:29:50.658Z,63.70
2022-10-11T09:32:27.401Z,63.70
2022-10-11T09:35:12.899Z,63.60
2022-10-11T09:38:00.807Z,63.60
2022-10-11T09:41:10.598Z,63.60
2022-10-11T09:43:39.956Z,63.50
2022-10-11T09:46:34.636Z,63.40
2022-10-11T09:49:12.211Z,63.70
2022-10-11T09:51:54.292Z,63.60
2022-10-11T09:54:52.076Z,63.80
2022-10-11T09:57:28.400Z,64.20
2022-10-11T10:00:33.440Z,64.80
2022-10-11T10:03:04.623Z,65.10
2022-10-11T10:05:38.494Z,65.30
2022-10-11T10:08:28.602Z,65.00
2022-10-11T10:11:00.089Z,64.00
2022-10-11T10:13:56.041Z,63.80
2022-10-11T10:16:38.796Z,63.20
2022-10-11T10:19:19.346Z,62.00
2022-10-11T10:21:53.452Z,62.10
2022-10-11T10:24:42.622Z,61.20
2022-10-11T10:27:17.568Z,60.90
2022-10-11T10:30:10.604Z,60.70
2022-10-11T10:32:59.973Z,58.00
2022-10-11T10:35:51.873Z,59.60
2022-10-11T10:38:33.087Z,57.70
2022-10-11T10:41:09.913Z,56.70
2022-10-11T10:43:45.538Z,57.10
2022-10-11T10:46:39.322Z,56.80
2022-10-11T10:49:55.290Z,55.10
2022-10-11T10:52:43.553Z,55.80
2022-10-11T10:55:37.467Z,54.40
2022-10-11T10:58:43.109Z,53.90
2022-10-11T11:01:28.596Z,53.30
2022-10-11T11:04:07.128Z,52.20
2022-10-11T11:06:54.673Z,53.50
2022-10-11T11:09:45.202Z,52.00
2022-10-11T11:13:05.252Z,51.10
2022-10-11T11:15:46.299Z,51.20
2022-10-11T11:18:40.948Z,50.50
2022-10-11T11:21:27.204Z,50.50
2022-10-11T11:24:19.694Z,49.70
2022-10-11T11:27:07.554Z,50.10
2022-10-11T11:30:08.299Z,49.80
2022-10-11T11:33:02.280Z,48.70
2022-10-11T11:35:44.083Z,47.70
2022-10-11T11:38:42.362Z,48.30
2022-10-11T11:41:22.818Z,46.70
2022-10-11T11:43:55.909Z,48.10
2022-10-11T11:46:31.791Z,47.50
2022-10-11T11:49:19.143Z,46.70
2022-10-11T11:51:47.105Z,44.40
2022-10-11T11:54:51.813Z,46.70
2022-10-11T11:58:07.390Z,44.70
2022-10-11T12:00:57.201Z,43.60
2022-10-11T12:03:50.781Z,44.30
2022-10-11T12:06:31.107Z,43.90
2022-10-11T12:09:23.893Z,44.10
2022-10-11T12:12:09.063Z,43.40
2022-10-11T12:14:40.641Z,43.00
2022-10-11T12:17:19.114Z,42.50
2022-10-11T12:20:23.394Z,42.70
2022-10-11T12:22:52.093Z,41.70
2022-10-11T12:25:31.255Z,42.30
2022-10-11T12:28:22.418Z,40.30
2022-10-11T12:30:52.582Z,40.90
2022-10-11T12:33:52.646Z,40.90
2022-10-11T12:36:46.914Z,41.00
2022-10-11T12:39:21.544Z,39.50
2022-10-11T12:41:53.794Z,39.50
2022-10-11T12:44:23.511Z,39.70
2022-10-11T12:46:57.535Z,39.60
2022-10-11T12:49:37.480Z,38.60
2022-10-11T12:52:17.800Z,37.10
2022-10-11T12:55:11.647Z,38.50
2022-10-11T12:58:07.399Z,38.30
2022-10-11T13:01:08.723Z,37.60
2022-10-11T13:03:42.382Z,37.10
2022-10-11T13:06:31.544Z,38.50
2022-10-11T13:09:17.792Z,37.80
2022-10-11T13:12:17.830Z,37.10
2022-10-11T13:15:00.984Z,37.20
2022-10-11T13:17:38.451Z,36.90
2022-10-11T13:20:17.827Z,36.30
2022-10-11T13:22:54.149Z,36.30
2022-10-11T13:25:29.201Z,35.90
2022-10-11T13:28:02.330Z,36.70
2022-10-11T13:30:34.143Z,36.80
2022-10-11T13:33:08.463Z,36.80
2022-10-11T13:35:38.058Z,36.60
2022-10-11T13:38:09.128Z,36.10
2022-10-11T13:40:39.757Z,35.40
2022-10-11T13:43:12.002Z,35.90
2022-10-11T13:45:44.212Z,35.80
2022-10-11T13:48:18.606Z,35.90
2022-10-11T13:51:04.500Z,35.20
2022-10-11T13:53:33.573Z,35.50
2022-10-11T13:56:07.615Z,35.40
2022-10-11T13:58:47.165Z,34.80
2022-10-11T14:01:24.650Z,34.50
2022-10-11T14:04:04.611Z,34.40
2022-10-11T14:06:48.030Z,34.90
2022-10-11T14:09:29.255Z,33.90
2022-10-11T14:12:21.573Z,33.70
2022-10-11T14:14:49.059Z,34.60
2022-10-11T14:17:35.727Z,34.60
2022-10-11T14:20:14.435Z,34.60
2022-10-11T14:22:47.158Z,33.60
2022-10-11T14:25:19.070Z,34.30
2022-10-11T14:27:49.201Z,34.60
2022-10-11T14:30:26.423Z,34.80
2022-10-11T14:32:57.758Z,34.70
2022-10-11T14:35:31.998Z,35.30
2022-10-11T14:38:01.543Z,35.30
2022-10-11T14:40:34.051Z,35.30
2022-10-11T14:43:00.852Z,35.30
2022-10-11T14:45:32.283Z,35.60
2022-10-11T14:47:59.082Z,35.60
2022-10-11T14:50:42.470Z,35.60
2022-10-11T14:53:10.581Z,35.40
2022-10-11T14:55:43.844Z,35.90
2022-10-11T14:58:16.236Z,35.80
2022-10-11T15:00:46.244Z,36.00
2022-10-11T15:03:15.400Z,36.20
2022-10-11T15:05:44.844Z,36.40
2022-10-11T15:08:16.773Z,36.50
2022-10-11T15:10:43.581Z,36.70
2022-10-11T15:13:12.477Z,36.80
2022-10-11T15:15:42.048Z,36.70
2022-10-11T15:18:17.454Z,36.70
2022-10-11T15:20:51.263Z,36.70
2022-10-11T15:23:18.024Z,36.80
2022-10-11T15:25:49.990Z,36.90
2022-10-11T15:28:29.569Z,37.00
2022-10-11T15:30:56.921Z,37.20
2022-10-11T15:33:26.936Z,37.30
2022-10-11T15:35:56.342Z,37.50
2022-10-11T15:38:25.755Z,37.60
2022-10-11T15:40:54.183Z,37.70
2022-10-11T15:43:25.106Z,37.80
2022-10-11T15:45:56.133Z,37.90
2022-10-11T15:48:26.570Z,38.00
2022-10-11T15:50:58.811Z,38.10
2022-10-11T15:53:35.381Z,38.20
2022-10-11T15:56:09.403Z,38.10
2022-10-11T15:58:42.677Z,38.30
2022-10-11T16:01:18.566Z,38.20
2022-10-11T16:03:48.034Z,38.40
2022-10-11T16:06:15.682Z,38.50
2022-10-11T16:08:44.656Z,38.50
2022-10-11T16:11:16.420Z,38.60
2022-10-11T16:13:43.267Z,38.70
2022-10-11T16:16:13.680Z,38.70
2022-10-11T16:18:40.871Z,38.80
2022-10-11T16:21:15.388Z,38.90
2022-10-11T16:23:46.752Z,39.10
2022-10-11T16:26:16.488Z,39.20
2022-10-11T16:28:48.250Z,39.20
2022-10-11T16:31:20.490Z,39.30
2022-10-11T16:33:48.223Z,39.50
2022-10-11T16:36:36.377Z,39.50
2022-10-11T16:39:14.449Z,39.90
2022-10-11T16:41:42.652Z,39.80
2022-10-11T16:44:20.771Z,39.90
2022-10-11T16:46:48.935Z,40.20
2022-10-11T16:49:18.606Z,40.30
2022-10-11T16:51:50.617Z,40.30
2022-10-11T16:58:39.298Z,41.10
2022-10-11T17:01:13.410Z,40.90
2022-10-11T17:03:40.205Z,41.00
2022-10-11T17:06:07.701Z,41.00
2022-10-11T17:08:37.634Z,41.10
2022-10-11T17:11:04.647Z,41.30
2022-10-11T17:13:33.944Z,41.30
2022-10-11T17:16:03.825Z,41.50
2022-10-11T17:18:35.318Z,41.70
2022-10-11T17:21:11.277Z,42.00
2022-10-11T17:23:38.696Z,42.30
2022-10-11T17:26:19.561Z,42.10
2022-10-11T17:28:51.706Z,42.50
2022-10-11T17:31:18.834Z,42.50
2022-10-11T17:33:45.711Z,42.40
2022-10-11T17:36:28.615Z,42.50
2022-10-11T17:38:59.824Z,43.30
2022-10-11T17:41:32.004Z,42.80
2022-10-11T17:43:59.604Z,42.80
2022-10-11T17:46:32.546Z,43.00
2022-10-11T17:49:02.173Z,43.20
2022-10-11T17:51:31.375Z,43.20
2022-10-11T17:54:03.219Z,43.20
2022-10-11T17:56:35.067Z,43.60
2022-10-11T17:59:04.305Z,43.50
2022-10-11T18:01:33.482Z,43.60
2022-10-11T18:04:10.055Z,43.70
2022-10-11T18:06:43.947Z,43.90
2022-10-11T18:09:15.005Z,44.00
2022-10-11T18:11:47.568Z,43.90
2022-10-11T18:14:14.958Z,44.20
2022-10-11T18:16:42.745Z,44.00
2022-10-11T18:19:12.467Z,44.20
2022-10-11T18:21:40.198Z,44.30
2022-10-11T18:24:14.870Z,44.40
2022-10-11T18:26:43.628Z,44.50
2022-10-11T18:29:12.352Z,44.50
2022-10-11T18:31:40.357Z,44.50
2022-10-11T18:34:15.882Z,44.60
2022-10-11T18:36:43.397Z,44.80
2022-10-11T18:39:19.017Z,44.80
2022-10-11T18:41:48.237Z,45.00
2022-10-11T18:44:16.120Z,44.90
2022-10-11T18:46:44.639Z,45.00
2022-10-11T18:49:12.192Z,45.10
2022-10-11T18:51:42.782Z,45.10
2022-10-11T18:54:15.327Z,45.30
2022-10-11T18:56:45.535Z,45.40
2022-10-11T18:59:12.425Z,45.40
2022-10-11T19:01:42.676Z,45.40
2022-10-11T19:04:12.533Z,45.60
2022-10-11T19:06:43.395Z,45.60
2022-10-11T19:09:21.555Z,45.60
2022-10-11T19:11:54.972Z,45.80
2022-10-11T19:14:31.203Z,45.80
2022-10-11T19:17:00.981Z,45.80
2022-10-11T19:19:33.063Z,45.90
2022-10-11T19:22:03.519Z,46.00
2022-10-11T19:24:33.688Z,46.00
2022-10-11T19:27:04.996Z,46.10
2022-10-11T19:29:32.626Z,47.00
2022-10-11T19:32:03.401Z,46.20
2022-10-11T19:34:32.917Z,46.40
2022-10-11T19:37:01.045Z,46.50
2022-10-11T19:39:29.504Z,46.50
2022-10-11T19:41:56.345Z,46.60
2022-10-11T19:44:23.208Z,46.60
2022-10-11T19:46:52.446Z,46.70
2022-10-11T19:49:24.925Z,46.80
2022-10-11T19:51:53.202Z,46.90
2022-10-11T19:54:22.180Z,46.90
2022-10-11T19:56:51.150Z,47.00
2022-10-11T19:59:18.394Z,47.00
2022-10-11T20:01:52.424Z,47.20
2022-10-11T20:04:47.501Z,47.20
2022-10-11T20:07:10.288Z,47.30
2022-10-11T20:09:37.177Z,47.40
2022-10-11T20:12:04.328Z,47.40
2022-10-11T20:14:33.077Z,47.50
2022-10-11T20:17:04.646Z,47.60
2022-10-11T20:19:31.925Z,47.70
2022-10-11T20:22:00.608Z,47.80
2022-10-11T20:24:33.475Z,47.80
2022-10-11T20:27:07.287Z,47.90
2022-10-11T20:29:34.028Z,48.00
2022-10-11T20:32:01.032Z,48.00
2022-10-11T20:34:32.255Z,48.10
2022-10-11T20:37:01.496Z,48.30
2022-10-11T20:39:30.423Z,48.10
2022-10-11T20:41:59.288Z,48.20
2022-10-11T20:44:28.555Z,48.30
2022-10-11T20:47:04.034Z,48.30
2022-10-11T20:49:36.433Z,48.30
2022-10-11T20:52:05.331Z,48.50
2022-10-11T20:54:34.138Z,48.40
2022-10-11T20:57:01.078Z,48.50
2022-10-11T20:59:30.164Z,48.60
2022-10-11T21:02:02.254Z,48.60
2022-10-11T21:04:31.420Z,48.90
2022-10-11T21:07:00.485Z,48.80
2022-10-11T21:09:29.933Z,48.90
2022-10-11T21:12:01.212Z,48.80
2022-10-11T21:14:34.753Z,48.80
2022-10-11T21:17:03.744Z,49.10
2022-10-11T21:19:30.478Z,48.90
2022-10-11T21:21:57.730Z,49.00
2022-10-11T21:24:24.498Z,49.00
2022-10-11T21:26:58.179Z,49.10
2022-10-11T21:29:29.436Z,49.20
2022-10-11T21:31:56.171Z,49.20
2022-10-11T21:34:25.379Z,49.20
2022-10-11T21:36:54.576Z,49.40
2022-10-11T21:39:21.481Z,49.40
2022-10-11T21:41:50.706Z,49.20
2022-10-11T21:44:22.453Z,49.30
2022-10-11T21:47:06.737Z,49.50
2022-10-11T21:49:34.294Z,49.40
2022-10-11T21:52:01.943Z,49.40
2022-10-11T21:54:33.316Z,49.40
2022-10-11T21:57:03.227Z,49.70
2022-10-11T21:59:32.504Z,49.60
2022-10-11T22:02:02.291Z,49.70
2022-10-11T22:04:32.242Z,49.70
2022-10-11T22:07:01.150Z,49.80
2022-10-11T22:09:34.765Z,49.80
2022-10-11T22:12:04.763Z,50.00
2022-10-11T22:14:33.712Z,49.90
2022-10-11T22:17:02.677Z,50.00
2022-10-11T22:19:31.861Z,50.10
2022-10-11T22:22:05.468Z,50.10
2022-10-11T22:24:36.804Z,50.20
2022-10-11T22:27:03.691Z,50.10
2022-10-11T22:29:35.043Z,50.20
2022-10-11T22:32:06.620Z,50.30
2022-10-11T22:34:33.677Z,50.40
2022-10-11T22:37:02.483Z,50.30
2022-10-11T22:39:29.828Z,50.30
2022-10-11T22:41:59.059Z,50.50
2022-10-11T22:44:30.640Z,50.50
2022-10-11T22:46:57.423Z,50.60
2022-10-11T22:49:26.678Z,50.60
2022-10-11T22:51:58.000Z,50.70
2022-10-11T22:54:27.420Z,50.60
2022-10-11T22:56:54.124Z,50.70
2022-10-11T22:59:23.131Z,50.80
2022-10-11T23:01:52.007Z,51.00
2022-10-11T23:04:19.185Z,51.00
2022-10-11T23:06:46.228Z,50.90
2022-10-11T23:09:13.159Z,50.90
2022-10-11T23:11:42.831Z,51.00
2022-10-11T23:14:10.729Z,51.10
2022-10-11T23:16:37.493Z,51.10
2022-10-11T23:19:07.187Z,51.20
2022-10-11T23:21:34.002Z,51.50
2022-10-11T23:24:03.048Z,51.40
2022-10-11T23:26:32.358Z,51.40
2022-10-11T23:29:06.696Z,51.50
2022-10-11T23:31:33.401Z,51.70
2022-10-11T23:34:02.862Z,51.50
2022-10-11T23:36:29.641Z,51.60
2022-10-11T23:38:58.509Z,51.60
2022-10-11T23:41:28.751Z,51.60
2022-10-11T23:44:00.732Z,51.70
2022-10-11T23:46:29.644Z,51.50
2022-10-11T23:48:58.950Z,51.70
2022-10-11T23:51:27.889Z,52.00
2022-10-11T23:53:54.673Z,51.90
2022-10-11T23:56:26.489Z,52.00
2022-10-11T23:58:53.441Z,51.90
